Time;durP1;ratioP1;P1;durP2;ratioP2;P2;SDS_P1;SDS_P2;PMS_P1;PMS_P2;Temp;Humidity;BMP_temperature;BMP_pressure;BME280_temperature;BME280_humidity;BME280_pressure;Samples;Min_cycle;Max_cycle;Signal;HPM_P1;HPM_P2
2024/03/29 00:00:36;;;;;;;1.30;0.50;;;;;;;;;;5012959;28;20412;-76
2024/03/29 00:03:02;;;;;;;1.33;0.53;;;;;;;;;;5013246;28;20412;-79
2024/03/29 00:05:28;;;;;;;1.27;0.20;;;;;;;;;;5013296;28;20510;-79
2024/03/29 00:07:54;;;;;;;1.43;0.30;;;;;;;;;;5013308;28;20899;-78
2024/03/29 00:10:20;;;;;;;3.67;0.57;;;;;;;;;;5013228;28;20413;-80
2024/03/29 00:12:45;;;;;;;1.87;0.57;;;;;;;;;;5013235;28;20211;-83
2024/03/29 00:15:11;;;;;;;1.87;0.20;;;;;;;;;;5012642;28;20222;-77
2024/03/29 00:17:37;;;;;;;1.13;0.20;;;;;;;;;;5013155;28;20480;-78
2024/03/29 00:20:03;;;;;;;2.53;0.40;;;;;;;;;;5011839;28;20425;-79
2024/03/29 00:22:29;;;;;;;2.50;1.00;;;;;;;;;;5013108;28;20205;-79
2024/03/29 00:24:56;;;;;;;2.40;1.30;;;;;;;;;;5013043;28;20416;-78
2024/03/29 00:27:25;;;;;;;1.23;0.43;;;;;;;;;;5013056;28;20419;-78
2024/03/29 00:29:53;;;;;;;1.90;0.30;;;;;;;;;;5012636;28;20491;-77
2024/03/29 00:32:18;;;;;;;4.43;0.90;;;;;;;;;;5013021;28;20429;-74
2024/03/29 00:34:45;;;;;;;0.70;0.40;;;;;;;;;;5013022;28;20454;-75
2024/03/29 00:37:11;;;;;;;2.80;1.03;;;;;;;;;;5012896;28;20993;-75
2024/03/29 00:39:37;;;;;;;2.70;0.50;;;;;;;;;;5012892;28;20412;-77
2024/03/29 00:42:04;;;;;;;2.10;0.87;;;;;;;;;;5012784;28;20448;-75
2024/03/29 00:44:30;;;;;;;1.57;0.37;;;;;;;;;;5013267;28;20426;-78
2024/03/29 00:46:56;;;;;;;2.97;0.63;;;;;;;;;;5016613;28;20420;-78
2024/03/29 00:49:22;;;;;;;3.30;0.50;;;;;;;;;;5016634;28;20929;-78
2024/03/29 00:51:47;;;;;;;1.17;0.60;;;;;;;;;;5016614;28;20412;-78
2024/03/29 00:54:14;;;;;;;0.60;0.50;;;;;;;;;;5016491;28;20185;-78
2024/03/29 00:56:40;;;;;;;1.43;0.63;;;;;;;;;;5016396;28;20473;-81
2024/03/29 00:59:06;;;;;;;1.73;0.30;;;;;;;;;;5015110;28;20442;-77
2024/03/29 01:01:32;;;;;;;2.73;0.63;;;;;;;;;;5016019;28;20920;-76
2024/03/29 01:03:58;;;;;;;1.90;0.30;;;;;;;;;;5016225;28;20458;-76
2024/03/29 01:06:24;;;;;;;2.97;0.90;;;;;;;;;;5016305;28;20452;-78
2024/03/29 01:08:50;;;;;;;2.40;0.60;;;;;;;;;;5016267;28;20456;-77
2024/03/29 01:11:16;;;;;;;1.53;0.33;;;;;;;;;;5016134;28;20451;-79
2024/03/29 01:13:42;;;;;;;3.13;0.30;;;;;;;;;;5015665;28;20522;-78
2024/03/29 01:16:07;;;;;;;6.30;1.37;;;;;;;;;;5015693;28;20413;-77
2024/03/29 01:18:34;;;;;;;4.40;0.60;;;;;;;;;;5015944;28;20425;-79
2024/03/29 01:21:00;;;;;;;3.77;1.03;;;;;;;;;;5015941;28;20468;-80
2024/03/29 01:23:26;;;;;;;2.80;0.40;;;;;;;;;;5015963;28;20422;-81
2024/03/29 01:25:51;;;;;;;1.60;0.50;;;;;;;;;;5016037;28;20419;-76
2024/03/29 01:28:17;;;;;;;2.70;0.60;;;;;;;;;;5015788;28;21016;-76
2024/03/29 01:30:43;;;;;;;0.90;0.40;;;;;;;;;;5015443;28;20407;-80
2024/03/29 01:33:09;;;;;;;2.83;0.40;;;;;;;;;;5015868;28;20478;-78
2024/03/29 01:35:35;;;;;;;3.80;0.40;;;;;;;;;;5015802;28;20416;-81
2024/03/29 01:38:01;;;;;;;1.73;0.20;;;;;;;;;;5015604;28;20471;-80
2024/03/29 01:40:27;;;;;;;2.80;0.40;;;;;;;;;;5015612;28;20637;-76
2024/03/29 01:42:54;;;;;;;3.03;0.60;;;;;;;;;;5014283;28;20947;-87
2024/03/29 01:45:20;;;;;;;1.53;0.37;;;;;;;;;;5015271;28;20408;-77
2024/03/29 01:47:46;;;;;;;1.23;0.20;;;;;;;;;;5015466;28;20527;-79
2024/03/29 01:50:12;;;;;;;1.33;0.40;;;;;;;;;;5015477;28;20424;-78
2024/03/29 01:52:39;;;;;;;1.07;0.20;;;;;;;;;;5015399;28;20502;-78
2024/03/29 01:55:05;;;;;;;1.67;0.60;;;;;;;;;;5015051;28;20418;-78
2024/03/29 01:57:32;;;;;;;1.17;0.27;;;;;;;;;;5015216;28;20862;-78
2024/03/29 01:59:58;;;;;;;2.53;0.20;;;;;;;;;;5014940;28;20419;-78
2024/03/29 02:02:24;;;;;;;1.60;0.20;;;;;;;;;;5015280;28;20758;-78
2024/03/29 02:04:50;;;;;;;1.90;0.60;;;;;;;;;;5015214;28;20418;-77
2024/03/29 02:07:16;;;;;;;0.83;0.20;;;;;;;;;;5015107;28;20486;-81
2024/03/29 02:09:42;;;;;;;2.33;0.50;;;;;;;;;;5015121;28;20415;-78
2024/03/29 02:12:08;;;;;;;3.40;0.40;;;;;;;;;;5013852;28;20414;-79
2024/03/29 02:14:34;;;;;;;0.57;0.20;;;;;;;;;;5014480;28;20549;-78
2024/03/29 02:17:00;;;;;;;0.80;0.53;;;;;;;;;;5014949;28;20633;-77
2024/03/29 02:19:26;;;;;;;1.00;0.50;;;;;;;;;;5013425;28;20478;-77
2024/03/29 02:21:54;;;;;;;3.93;0.93;;;;;;;;;;5014874;28;20971;-77
2024/03/29 02:24:20;;;;;;;1.67;0.23;;;;;;;;;;5014774;28;20407;-77
2024/03/29 02:26:46;;;;;;;2.20;0.93;;;;;;;;;;5014767;28;20430;-77
2024/03/29 02:29:12;;;;;;;4.50;0.83;;;;;;;;;;5014269;28;20900;-79
2024/03/29 02:31:38;;;;;;;3.57;0.57;;;;;;;;;;5014796;28;20413;-77
2024/03/29 02:34:04;;;;;;;2.50;0.37;;;;;;;;;;5014591;28;20426;-78
2024/03/29 02:36:30;;;;;;;1.80;0.50;;;;;;;;;;5014537;28;20458;-78
2024/03/29 02:38:57;;;;;;;2.93;0.60;;;;;;;;;;5014531;28;20759;-77
2024/03/29 02:41:23;;;;;;;1.83;0.67;;;;;;;;;;5014546;28;20918;-77
2024/03/29 02:43:48;;;;;;;2.73;0.40;;;;;;;;;;5014490;28;20423;-85
2024/03/29 02:46:14;;;;;;;1.60;0.30;;;;;;;;;;5012775;28;20915;-77
2024/03/29 02:48:41;;;;;;;2.30;0.50;;;;;;;;;;5014428;28;20427;-80
2024/03/29 02:51:07;;;;;;;2.03;0.30;;;;;;;;;;5014230;28;20425;-79
2024/03/29 02:53:33;;;;;;;1.30;0.30;;;;;;;;;;5014343;28;20893;-81
2024/03/29 02:55:59;;;;;;;2.00;0.40;;;;;;;;;;5014194;28;20429;-77
2024/03/29 02:58:25;;;;;;;1.33;0.33;;;;;;;;;;5014164;28;20435;-78
2024/03/29 03:00:50;;;;;;;2.03;0.33;;;;;;;;;;5013832;28;20410;-77
2024/03/29 03:03:17;;;;;;;2.10;0.50;;;;;;;;;;5014104;28;20430;-77
2024/03/29 03:05:43;;;;;;;2.23;0.30;;;;;;;;;;5013984;28;20471;-79
2024/03/29 03:10:56;;;;;;;1.40;0.67;;;;;;;;;;5014325;28;20915;-78
2024/03/29 03:13:22;;;;;;;2.63;0.30;;;;;;;;;;5013876;28;20424;-80
2024/03/29 03:15:48;;;;;;;0.47;0.20;;;;;;;;;;5013432;28;20458;-79
2024/03/29 03:18:14;;;;;;;2.30;0.40;;;;;;;;;;5013831;28;20470;-77
2024/03/29 03:20:40;;;;;;;2.10;0.30;;;;;;;;;;5013855;28;20413;-81
2024/03/29 03:23:05;;;;;;;4.80;0.37;;;;;;;;;;5012623;28;20435;-78
2024/03/29 03:25:31;;;;;;;2.13;0.40;;;;;;;;;;5013809;28;20411;-76
2024/03/29 03:27:57;;;;;;;1.90;0.50;;;;;;;;;;5013727;28;20427;-79
2024/03/29 03:30:23;;;;;;;2.20;0.53;;;;;;;;;;5013321;28;20942;-78
2024/03/29 03:32:49;;;;;;;1.90;0.40;;;;;;;;;;5013714;28;20411;-78
2024/03/29 03:35:15;;;;;;;0.70;0.27;;;;;;;;;;5013579;28;20414;-78
2024/03/29 03:37:41;;;;;;;2.90;0.20;;;;;;;;;;5013525;28;20811;-77
2024/03/29 03:40:07;;;;;;;0.83;0.30;;;;;;;;;;5013521;28;20406;-74
2024/03/29 03:42:33;;;;;;;2.87;0.50;;;;;;;;;;5013490;28;20426;-77
2024/03/29 03:44:59;;;;;;;0.60;0.27;;;;;;;;;;5013197;28;20409;-75
2024/03/29 03:47:25;;;;;;;3.50;0.40;;;;;;;;;;5012199;28;20430;-76
2024/03/29 03:49:51;;;;;;;1.07;0.20;;;;;;;;;;5013402;28;20404;-81
2024/03/29 03:52:17;;;;;;;2.60;0.60;;;;;;;;;;5013210;28;20419;-76
2024/03/29 03:54:43;;;;;;;1.37;0.57;;;;;;;;;;5013214;28;20468;-76
2024/03/29 03:57:09;;;;;;;0.77;0.20;;;;;;;;;;5013377;28;20515;-76
2024/03/29 03:59:34;;;;;;;1.13;0.20;;;;;;;;;;5013080;28;20419;-77
2024/03/29 04:02:00;;;;;;;3.30;0.50;;;;;;;;;;5013375;28;20411;-75
2024/03/29 04:04:26;;;;;;;4.23;0.23;;;;;;;;;;5013395;28;20402;-75
2024/03/29 04:06:52;;;;;;;1.07;0.40;;;;;;;;;;5013358;28;20409;-80
2024/03/29 04:09:18;;;;;;;2.30;0.50;;;;;;;;;;5011944;28;20436;-78
2024/03/29 04:11:44;;;;;;;1.63;0.30;;;;;;;;;;5013245;28;20410;-76
2024/03/29 04:14:10;;;;;;;1.80;0.30;;;;;;;;;;5012693;28;20463;-75
2024/03/29 04:16:36;;;;;;;2.80;0.50;;;;;;;;;;5013146;28;20947;-75
2024/03/29 04:19:02;;;;;;;1.13;0.30;;;;;;;;;;5014868;28;20407;-76
2024/03/29 04:21:28;;;;;;;1.30;0.20;;;;;;;;;;5017144;28;20427;-77
2024/03/29 04:23:53;;;;;;;1.10;0.20;;;;;;;;;;5017216;28;20410;-77
2024/03/29 04:26:20;;;;;;;2.90;0.23;;;;;;;;;;5017000;28;20838;-76
2024/03/29 04:28:46;;;;;;;1.97;0.40;;;;;;;;;;5017009;28;20438;-77
2024/03/29 04:31:12;;;;;;;5.63;0.67;;;;;;;;;;5016833;28;20419;-76
2024/03/29 04:33:38;;;;;;;2.40;0.50;;;;;;;;;;5016940;28;20437;-75
2024/03/29 04:36:04;;;;;;;2.07;0.40;;;;;;;;;;5016770;28;20411;-78
2024/03/29 04:38:31;;;;;;;1.27;0.30;;;;;;;;;;5015570;28;20860;-77
2024/03/29 04:40:58;;;;;;;2.50;0.30;;;;;;;;;;5016743;28;20430;-78
2024/03/29 04:43:24;;;;;;;4.73;0.30;;;;;;;;;;5016721;28;20424;-83
2024/03/29 04:45:50;;;;;;;1.90;0.40;;;;;;;;;;5016373;28;20420;-78
2024/03/29 04:48:17;;;;;;;0.50;0.23;;;;;;;;;;5016662;28;20403;-75
2024/03/29 04:50:43;;;;;;;1.73;0.30;;;;;;;;;;5016658;28;20418;-79
2024/03/29 04:53:09;;;;;;;1.60;0.20;;;;;;;;;;5016465;28;20771;-78
2024/03/29 04:55:35;;;;;;;1.90;0.40;;;;;;;;;;5016588;28;20403;-77
2024/03/29 04:58:01;;;;;;;4.20;0.50;;;;;;;;;;5016409;28;20474;-77
2024/03/29 05:00:27;;;;;;;2.70;0.20;;;;;;;;;;5016228;28;20454;-77
2024/03/29 05:02:53;;;;;;;3.27;0.20;;;;;;;;;;5016408;28;20411;-79
2024/03/29 05:05:19;;;;;;;1.00;0.20;;;;;;;;;;5015070;28;20420;-79
2024/03/29 05:07:45;;;;;;;1.43;0.40;;;;;;;;;;5016238;28;20413;-77
2024/03/29 05:10:11;;;;;;;3.20;0.20;;;;;;;;;;5016336;28;20408;-77
2024/03/29 05:12:37;;;;;;;1.87;0.20;;;;;;;;;;5016251;28;20747;-78
2024/03/29 05:15:03;;;;;;;0.70;0.20;;;;;;;;;;5015623;28;20463;-78
2024/03/29 05:17:29;;;;;;;2.87;0.20;;;;;;;;;;5015997;28;20513;-78
2024/03/29 05:19:55;;;;;;;1.40;0.20;;;;;;;;;;5014786;28;20445;-78
2024/03/29 05:22:21;;;;;;;3.30;0.63;;;;;;;;;;5015879;28;20566;-79
2024/03/29 05:24:47;;;;;;;1.40;0.33;;;;;;;;;;5016017;28;20502;-78
2024/03/29 05:27:13;;;;;;;4.80;0.30;;;;;;;;;;5015811;28;20772;-78
2024/03/29 05:29:39;;;;;;;1.87;0.20;;;;;;;;;;5015426;28;20414;-77
2024/03/29 05:32:05;;;;;;;2.93;0.20;;;;;;;;;;5015331;28;20425;-77
2024/03/29 05:34:31;;;;;;;1.70;0.60;;;;;;;;;;5014592;28;20521;-77
2024/03/29 05:36:57;;;;;;;3.40;0.30;;;;;;;;;;5015598;28;20622;-77
2024/03/29 05:39:23;;;;;;;1.57;0.30;;;;;;;;;;5015628;28;20811;-78
2024/03/29 05:41:49;;;;;;;1.57;0.30;;;;;;;;;;5015724;28;20520;-84
2024/03/29 05:44:15;;;;;;;1.88;0.28;;;;;;;;;;5015453;28;20319;-78
2024/03/29 05:46:41;;;;;;;4.43;0.47;;;;;;;;;;5015514;28;20180;-79
2024/03/29 05:49:07;;;;;;;1.00;0.20;;;;;;;;;;5015506;28;20502;-79
2024/03/29 05:51:36;;;;;;;1.90;0.20;;;;;;;;;;5015481;28;20439;-78
2024/03/29 05:54:05;;;;;;;2.40;0.20;;;;;;;;;;5015317;28;20469;-82
2024/03/29 05:56:31;;;;;;;3.03;0.20;;;;;;;;;;5015310;28;20544;-80
2024/03/29 05:58:57;;;;;;;2.10;0.20;;;;;;;;;;5014969;28;20415;-81
2024/03/29 06:01:23;;;;;;;2.80;0.37;;;;;;;;;;5015240;28;20510;-80
2024/03/29 06:03:54;;;;;;;1.97;0.30;;;;;;;;;;5015154;28;20753;-80
2024/03/29 06:06:23;;;;;;;0.40;0.20;;;;;;;;;;5015224;28;20749;-81
2024/03/29 06:08:49;;;;;;;1.77;0.20;;;;;;;;;;5015185;28;20769;-82
2024/03/29 06:11:15;;;;;;;2.53;0.30;;;;;;;;;;5015069;28;20470;-81
2024/03/29 06:19:07;;;;;;;3.10;0.90;;;;;;;;;;5015283;28;20419;-78
2024/03/29 06:21:38;;;;;;;3.60;0.20;;;;;;;;;;5014948;28;20880;-82
2024/03/29 06:24:05;;;;;;;1.30;0.20;;;;;;;;;;5015037;28;20420;-82
2024/03/29 06:26:31;;;;;;;0.70;0.30;;;;;;;;;;5014895;28;20412;-81
2024/03/29 06:28:57;;;;;;;0.70;0.20;;;;;;;;;;5014468;28;20438;-81
2024/03/29 06:31:22;;;;;;;1.40;0.20;;;;;;;;;;5014627;28;20428;-77
2024/03/29 06:33:48;;;;;;;3.00;0.50;;;;;;;;;;5014701;28;20416;-77
2024/03/29 06:36:14;;;;;;;2.33;0.60;;;;;;;;;;5014634;28;20411;-77
2024/03/29 06:38:40;;;;;;;1.70;0.50;;;;;;;;;;5014606;28;20514;-78
2024/03/29 06:41:06;;;;;;;2.67;0.50;;;;;;;;;;5014525;28;20846;-80
2024/03/29 06:43:32;;;;;;;1.13;0.40;;;;;;;;;;5013190;28;20420;-78
2024/03/29 06:45:59;;;;;;;1.00;0.30;;;;;;;;;;5014355;28;20412;-78
2024/03/29 06:48:25;;;;;;;1.23;0.20;;;;;;;;;;5014431;28;20420;-77
2024/03/29 06:50:51;;;;;;;0.80;0.30;;;;;;;;;;5014634;28;20509;-78
2024/03/29 06:53:17;;;;;;;1.80;0.20;;;;;;;;;;5014297;28;20479;-77
2024/03/29 06:55:43;;;;;;;2.50;0.20;;;;;;;;;;5013124;28;20423;-77
2024/03/29 06:58:10;;;;;;;2.43;0.33;;;;;;;;;;5014257;28;20484;-76
2024/03/29 07:00:36;;;;;;;0.70;0.30;;;;;;;;;;5013906;28;20420;-79
2024/03/29 07:03:01;;;;;;;1.07;0.30;;;;;;;;;;5014724;28;20803;-80
2024/03/29 07:05:27;;;;;;;5.83;0.40;;;;;;;;;;5014475;28;20416;-78
2024/03/29 07:07:55;;;;;;;3.20;0.40;;;;;;;;;;5014389;28;20413;-78
2024/03/29 07:10:21;;;;;;;2.40;0.20;;;;;;;;;;5014320;28;20419;-80
2024/03/29 07:12:47;;;;;;;4.47;0.40;;;;;;;;;;5014145;28;20420;-78
2024/03/29 07:15:13;;;;;;;0.43;0.20;;;;;;;;;;5013574;28;20483;-80
2024/03/29 07:17:40;;;;;;;3.70;0.40;;;;;;;;;;5014035;28;20476;-86
2024/03/29 07:20:08;;;;;;;1.93;0.60;;;;;;;;;;5014074;28;20418;-77
2024/03/29 07:22:34;;;;;;;1.27;0.30;;;;;;;;;;5014113;28;20520;-82
2024/03/29 07:25:00;;;;;;;3.07;0.43;;;;;;;;;;5014112;28;20443;-79
2024/03/29 07:27:27;;;;;;;0.80;0.30;;;;;;;;;;5014143;28;20673;-87
2024/03/29 07:29:53;;;;;;;0.97;0.50;;;;;;;;;;5013677;28;20424;-86
2024/03/29 07:32:19;;;;;;;1.30;0.30;;;;;;;;;;5013926;28;20417;-78
2024/03/29 07:34:45;;;;;;;1.33;0.30;;;;;;;;;;5013916;28;20546;-82
2024/03/29 07:37:16;;;;;;;1.43;0.50;;;;;;;;;;5013729;28;20469;-79
2024/03/29 07:39:42;;;;;;;2.10;0.20;;;;;;;;;;5013874;28;20925;-82
2024/03/29 07:42:09;;;;;;;1.50;0.50;;;;;;;;;;5012601;28;20427;-80
2024/03/29 07:44:35;;;;;;;1.70;0.30;;;;;;;;;;5013883;28;20417;-81
2024/03/29 07:47:00;;;;;;;2.10;0.93;;;;;;;;;;5013831;28;20782;-80
2024/03/29 07:49:27;;;;;;;3.17;0.50;;;;;;;;;;5014346;28;20421;-82
2024/03/29 07:51:53;;;;;;;1.43;0.20;;;;;;;;;;5014496;28;20167;-80
2024/03/29 07:54:19;;;;;;;1.13;0.20;;;;;;;;;;5013284;28;20507;-78
2024/03/29 07:56:45;;;;;;;0.67;0.27;;;;;;;;;;5013538;28;20472;-79
2024/03/29 07:59:11;;;;;;;1.37;0.20;;;;;;;;;;5013202;28;20417;-79
2024/03/29 08:01:37;;;;;;;1.00;0.30;;;;;;;;;;5013677;28;20453;-78
2024/03/29 08:04:03;;;;;;;1.63;0.23;;;;;;;;;;5013565;28;20445;-80
2024/03/29 08:06:29;;;;;;;1.03;0.30;;;;;;;;;;5013342;28;20513;-83
2024/03/29 08:08:55;;;;;;;2.30;0.20;;;;;;;;;;5013298;28;20442;-78
2024/03/29 08:11:21;;;;;;;2.10;0.20;;;;;;;;;;5013765;28;20717;-82
2024/03/29 08:13:47;;;;;;;0.80;0.20;;;;;;;;;;5012859;28;20229;-81
2024/03/29 08:16:13;;;;;;;2.90;0.20;;;;;;;;;;5013297;28;20472;-79
2024/03/29 08:18:39;;;;;;;1.50;0.50;;;;;;;;;;5013290;28;20402;-78
2024/03/29 08:21:11;;;;;;;0.70;0.20;;;;;;;;;;5013283;28;20778;-78
2024/03/29 08:23:38;;;;;;;0.47;0.20;;;;;;;;;;5013426;28;20413;-79
2024/03/29 08:26:04;;;;;;;1.17;0.40;;;;;;;;;;5013289;28;20426;-78
2024/03/29 08:28:30;;;;;;;1.73;0.27;;;;;;;;;;5012732;28;20409;-79
2024/03/29 08:30:59;;;;;;;0.40;0.20;;;;;;;;;;5013087;28;20406;-79
2024/03/29 08:33:25;;;;;;;2.00;0.23;;;;;;;;;;5013069;28;20898;-78
2024/03/29 08:35:51;;;;;;;2.10;0.40;;;;;;;;;;5011737;28;20416;-79
2024/03/29 08:38:17;;;;;;;0.53;0.20;;;;;;;;;;5012930;28;20474;-78
2024/03/29 08:40:43;;;;;;;2.00;0.43;;;;;;;;;;5013015;28;20969;-79
2024/03/29 08:43:09;;;;;;;1.43;0.30;;;;;;;;;;5012674;28;20187;-79
2024/03/29 08:45:40;;;;;;;1.40;0.30;;;;;;;;;;5013091;28;20466;-81
2024/03/29 08:48:06;;;;;;;2.50;0.30;;;;;;;;;;5012809;28;20391;-79
2024/03/29 08:50:32;;;;;;;1.37;0.40;;;;;;;;;;5012400;28;20485;-78
2024/03/29 08:52:58;;;;;;;1.33;0.30;;;;;;;;;;5004419;28;20407;-84
2024/03/29 08:55:24;;;;;;;1.90;0.30;;;;;;;;;;5005488;28;20585;-79
2024/03/29 08:57:50;;;;;;;1.27;0.40;;;;;;;;;;5002886;28;20474;-81
2024/03/29 09:00:16;;;;;;;2.97;0.60;;;;;;;;;;5009902;28;20472;-78
2024/03/29 09:02:41;;;;;;;3.73;0.20;;;;;;;;;;5012801;28;20426;-83
2024/03/29 09:05:07;;;;;;;1.87;0.57;;;;;;;;;;5013149;28;20476;-82
2024/03/29 09:07:33;;;;;;;1.20;0.20;;;;;;;;;;5016696;28;20508;-78
2024/03/29 09:10:00;;;;;;;0.73;0.40;;;;;;;;;;5016373;28;20775;-79
2024/03/29 09:12:26;;;;;;;0.97;0.20;;;;;;;;;;5016472;28;20506;-79
2024/03/29 09:14:52;;;;;;;1.67;0.43;;;;;;;;;;5015896;28;20986;-78
2024/03/29 09:17:18;;;;;;;1.23;0.20;;;;;;;;;;5016201;28;20473;-79
2024/03/29 09:19:44;;;;;;;4.67;0.63;;;;;;;;;;5016409;28;20407;-80
2024/03/29 09:22:10;;;;;;;1.67;0.20;;;;;;;;;;5016318;28;20426;-78
2024/03/29 09:24:36;;;;;;;2.00;0.50;;;;;;;;;;5016220;28;20403;-78
2024/03/29 09:27:02;;;;;;;2.93;1.07;;;;;;;;;;5016147;28;20423;-79
2024/03/29 09:29:28;;;;;;;1.40;0.50;;;;;;;;;;5015765;28;20406;-79
2024/03/29 09:31:54;;;;;;;1.47;0.47;;;;;;;;;;5015918;28;20934;-79
2024/03/29 09:34:20;;;;;;;2.93;0.40;;;;;;;;;;5015922;28;20394;-79
2024/03/29 09:36:46;;;;;;;1.13;0.10;;;;;;;;;;5015877;28;20566;-78
2024/03/29 09:39:12;;;;;;;1.13;0.20;;;;;;;;;;5015788;28;20419;-79
2024/03/29 09:41:39;;;;;;;2.20;0.30;;;;;;;;;;5015665;28;20410;-78
2024/03/29 09:44:06;;;;;;;2.60;0.40;;;;;;;;;;5015358;28;20430;-78
2024/03/29 09:46:33;;;;;;;1.17;0.40;;;;;;;;;;5016239;28;20403;-77
2024/03/29 09:49:02;;;;;;;3.40;0.70;;;;;;;;;;5015600;28;20425;-79
2024/03/29 09:51:28;;;;;;;2.37;0.43;;;;;;;;;;5015579;28;20413;-79
2024/03/29 09:53:57;;;;;;;3.17;0.57;;;;;;;;;;5014334;28;20452;-81
2024/03/29 09:56:25;;;;;;;1.80;0.30;;;;;;;;;;5015236;28;20422;-78
2024/03/29 09:58:51;;;;;;;2.87;0.70;;;;;;;;;;5015088;28;20418;-79
2024/03/29 10:01:18;;;;;;;2.30;0.20;;;;;;;;;;5015234;28;20812;-78
2024/03/29 10:03:45;;;;;;;1.70;0.40;;;;;;;;;;5015164;28;20480;-82
2024/03/29 10:06:15;;;;;;;2.50;0.40;;;;;;;;;;5015147;28;20422;-80
2024/03/29 10:08:40;;;;;;;1.73;0.20;;;;;;;;;;5015182;28;20911;-82
2024/03/29 10:11:07;;;;;;;1.00;0.20;;;;;;;;;;5015409;28;20492;-82
2024/03/29 10:13:34;;;;;;;1.67;0.60;;;;;;;;;;5014491;28;20509;-82
2024/03/29 10:16:02;;;;;;;2.00;0.20;;;;;;;;;;5014866;28;20460;-80
2024/03/29 10:18:30;;;;;;;0.70;0.20;;;;;;;;;;5015134;28;20474;-81
2024/03/29 10:21:03;;;;;;;1.43;0.40;;;;;;;;;;5015109;28;20406;-78
2024/03/29 10:23:29;;;;;;;2.93;0.40;;;;;;;;;;5015217;28;20777;-82
2024/03/29 10:25:55;;;;;;;1.40;0.30;;;;;;;;;;5015218;28;20422;-79
2024/03/29 10:28:21;;;;;;;2.90;0.50;;;;;;;;;;5014598;28;20764;-78
2024/03/29 10:30:46;;;;;;;0.47;0.20;;;;;;;;;;5014934;28;20902;-78
2024/03/29 10:33:13;;;;;;;0.73;0.23;;;;;;;;;;5014820;28;20914;-79
2024/03/29 10:35:43;;;;;;;1.93;0.20;;;;;;;;;;5014746;28;20774;-79
2024/03/29 10:38:10;;;;;;;0.80;0.30;;;;;;;;;;5014696;28;20527;-85
2024/03/29 10:40:38;;;;;;;0.70;0.30;;;;;;;;;;5014550;28;20410;-78
2024/03/29 10:43:09;;;;;;;1.70;0.43;;;;;;;;;;5013474;28;20450;-79
2024/03/29 10:45:35;;;;;;;1.50;0.70;;;;;;;;;;5014637;28;20411;-87
2024/03/29 10:48:03;;;;;;;0.83;0.20;;;;;;;;;;5014650;28;20469;-81
2024/03/29 10:50:31;;;;;;;1.30;0.30;;;;;;;;;;5014363;28;20934;-78
2024/03/29 10:52:59;;;;;;;2.77;0.37;;;;;;;;;;5014387;28;20430;-77
2024/03/29 10:55:25;;;;;;;1.57;0.27;;;;;;;;;;5014435;28;20469;-78
2024/03/29 10:57:54;;;;;;;1.40;0.30;;;;;;;;;;5013898;28;20499;-78
2024/03/29 11:00:21;;;;;;;1.13;0.80;;;;;;;;;;5014162;28;20497;-78
2024/03/29 11:03:03;;;;;;;2.40;0.47;;;;;;;;;;5012938;28;20419;-78
2024/03/29 11:05:30;;;;;;;2.10;0.63;;;;;;;;;;5014172;28;20402;-77
2024/03/29 11:07:57;;;;;;;2.00;0.30;;;;;;;;;;5013983;28;20403;-79
2024/03/29 11:10:29;;;;;;;1.67;0.30;;;;;;;;;;5012618;28;20455;-78
2024/03/29 11:12:59;;;;;;;2.80;0.70;;;;;;;;;;5012351;28;20453;-80
2024/03/29 11:15:28;;;;;;;1.30;0.33;;;;;;;;;;5013807;28;20473;-77
2024/03/29 11:17:55;;;;;;;1.23;0.23;;;;;;;;;;5012720;28;20482;-80
2024/03/29 11:20:27;;;;;;;1.10;0.23;;;;;;;;;;5013841;28;20421;-77
2024/03/29 11:22:53;;;;;;;0.83;0.40;;;;;;;;;;5013907;28;20403;-79
2024/03/29 11:25:19;;;;;;;1.00;0.47;;;;;;;;;;5013990;28;20413;-79
2024/03/29 11:27:48;;;;;;;2.30;0.40;;;;;;;;;;5013213;28;20779;-78
2024/03/29 11:30:18;;;;;;;1.80;0.30;;;;;;;;;;5013550;28;20455;-79
2024/03/29 11:32:43;;;;;;;0.70;0.20;;;;;;;;;;5014021;28;20411;-78
2024/03/29 11:35:16;;;;;;;0.80;0.20;;;;;;;;;;5013975;28;20828;-79
2024/03/29 11:37:42;;;;;;;2.13;0.50;;;;;;;;;;5013777;28;20562;-80
2024/03/29 11:40:11;;;;;;;0.87;0.20;;;;;;;;;;5013569;28;20960;-77
2024/03/29 11:42:38;;;;;;;0.87;0.20;;;;;;;;;;5012010;28;20424;-77
2024/03/29 11:45:07;;;;;;;1.40;0.30;;;;;;;;;;5013585;28;20409;-77
2024/03/29 11:47:33;;;;;;;1.60;0.63;;;;;;;;;;5013521;28;20415;-79
2024/03/29 11:49:59;;;;;;;1.93;0.47;;;;;;;;;;5013727;28;21003;-79
2024/03/29 11:52:27;;;;;;;1.63;0.20;;;;;;;;;;5013570;28;20257;-81
2024/03/29 11:54:54;;;;;;;1.07;0.30;;;;;;;;;;5013516;28;20407;-79
2024/03/29 11:57:20;;;;;;;1.27;0.27;;;;;;;;;;5013633;28;20967;-80
2024/03/29 11:59:46;;;;;;;1.33;0.20;;;;;;;;;;5013208;28;20460;-79
2024/03/29 12:02:14;;;;;;;0.70;0.20;;;;;;;;;;5013304;28;20433;-80
2024/03/29 12:04:41;;;;;;;1.00;0.20;;;;;;;;;;5013500;28;20439;-82
2024/03/29 12:07:07;;;;;;;1.83;0.40;;;;;;;;;;5013471;28;20760;-85
2024/03/29 12:09:33;;;;;;;2.50;0.20;;;;;;;;;;5013295;28;20475;-85
2024/03/29 12:12:05;;;;;;;0.60;0.20;;;;;;;;;;5013419;28;20452;-79
2024/03/29 12:14:35;;;;;;;0.60;0.20;;;;;;;;;;5012791;28;21084;-78
2024/03/29 12:17:01;;;;;;;1.13;0.20;;;;;;;;;;5013216;28;20464;-78
2024/03/29 12:19:27;;;;;;;3.03;0.23;;;;;;;;;;5013421;28;20423;-79
2024/03/29 12:21:53;;;;;;;1.57;0.50;;;;;;;;;;5013429;28;20399;-81
2024/03/29 12:24:19;;;;;;;1.43;0.67;;;;;;;;;;5011995;28;20421;-79
2024/03/29 12:26:45;;;;;;;0.77;0.43;;;;;;;;;;5013187;28;20464;-81
2024/03/29 12:29:11;;;;;;;2.40;0.40;;;;;;;;;;5012751;28;20559;-77
2024/03/29 12:31:38;;;;;;;6.73;1.07;;;;;;;;;;5013033;28;20437;-80
2024/03/29 12:34:06;;;;;;;1.80;0.50;;;;;;;;;;5013031;28;20417;-81
2024/03/29 12:36:33;;;;;;;4.20;0.80;;;;;;;;;;5013085;28;20827;-86
2024/03/29 12:39:02;;;;;;;0.90;0.30;;;;;;;;;;5013302;28;20473;-79
2024/03/29 12:41:29;;;;;;;0.83;0.30;;;;;;;;;;5015346;28;20413;-83
2024/03/29 12:43:55;;;;;;;1.43;0.20;;;;;;;;;;5016457;28;20406;-85
2024/03/29 12:46:21;;;;;;;1.27;0.27;;;;;;;;;;5004917;28;20833;-79
2024/03/29 12:48:47;;;;;;;1.43;0.20;;;;;;;;;;5003087;28;20430;-82
2024/03/29 12:51:13;;;;;;;0.97;0.30;;;;;;;;;;5002875;28;20453;-78
2024/03/29 12:53:39;;;;;;;2.83;0.63;;;;;;;;;;5002900;28;20206;-79
2024/03/29 12:56:06;;;;;;;3.07;0.30;;;;;;;;;;5003943;28;20473;-79
2024/03/29 12:58:31;;;;;;;2.20;0.23;;;;;;;;;;5018647;28;20489;-80
2024/03/29 13:00:58;;;;;;;1.30;0.33;;;;;;;;;;5002196;28;20448;-79
2024/03/29 13:03:24;;;;;;;0.60;0.20;;;;;;;;;;5002681;28;20192;-86
2024/03/29 13:05:49;;;;;;;1.40;0.50;;;;;;;;;;5003967;28;21006;-80
2024/03/29 13:08:15;;;;;;;0.90;0.50;;;;;;;;;;5018173;28;20935;-84
2024/03/29 13:10:42;;;;;;;2.63;0.50;;;;;;;;;;5004283;28;20446;-83
2024/03/29 13:13:08;;;;;;;1.10;0.20;;;;;;;;;;5002213;28;20444;-79
2024/03/29 13:15:35;;;;;;;1.27;0.30;;;;;;;;;;5002918;28;20486;-85
2024/03/29 13:18:01;;;;;;;2.47;0.40;;;;;;;;;;5002879;28;20592;-83
2024/03/29 13:20:27;;;;;;;2.30;0.30;;;;;;;;;;5001550;28;20525;-79
2024/03/29 13:22:55;;;;;;;1.20;0.30;;;;;;;;;;5002575;28;20496;-86
2024/03/29 13:25:21;;;;;;;1.17;0.30;;;;;;;;;;5002777;28;20433;-81
2024/03/29 13:27:53;;;;;;;1.60;0.50;;;;;;;;;;5002444;28;20437;-80
2024/03/29 13:30:19;;;;;;;1.03;0.30;;;;;;;;;;5002910;28;20938;-84
2024/03/29 13:32:45;;;;;;;1.67;0.30;;;;;;;;;;5002401;28;20493;-80
2024/03/29 13:35:11;;;;;;;1.07;0.43;;;;;;;;;;5002849;28;20450;-84
2024/03/29 13:37:41;;;;;;;3.60;0.60;;;;;;;;;;5002753;28;20219;-81
2024/03/29 13:40:08;;;;;;;1.50;0.57;;;;;;;;;;5001347;28;20460;-78
2024/03/29 13:42:34;;;;;;;0.97;0.40;;;;;;;;;;5001819;28;20442;-78
2024/03/29 13:45:00;;;;;;;1.33;0.30;;;;;;;;;;5000465;28;20437;-88
2024/03/29 13:47:26;;;;;;;0.93;0.20;;;;;;;;;;5000969;28;20458;-82
2024/03/29 13:49:54;;;;;;;1.43;0.20;;;;;;;;;;5015645;28;20485;-81
2024/03/29 13:52:20;;;;;;;0.67;0.30;;;;;;;;;;5000170;28;20674;-84
2024/03/29 13:54:46;;;;;;;2.00;0.20;;;;;;;;;;5000202;28;20533;-78
2024/03/29 13:57:12;;;;;;;1.40;0.20;;;;;;;;;;5001104;28;20476;-82
2024/03/29 13:59:38;;;;;;;1.20;0.20;;;;;;;;;;4999840;28;20446;-80
2024/03/29 14:02:05;;;;;;;1.10;0.30;;;;;;;;;;4999683;28;20480;-78
2024/03/29 14:04:31;;;;;;;1.00;0.20;;;;;;;;;;5000255;28;20451;-79
2024/03/29 14:06:57;;;;;;;0.77;0.43;;;;;;;;;;4999691;28;20439;-78
2024/03/29 14:09:23;;;;;;;0.43;0.30;;;;;;;;;;5000898;28;20454;-78
2024/03/29 14:11:49;;;;;;;1.17;0.20;;;;;;;;;;5001562;28;20649;-83
2024/03/29 14:14:16;;;;;;;0.73;0.30;;;;;;;;;;5001078;28;20233;-79
2024/03/29 14:16:42;;;;;;;0.70;0.50;;;;;;;;;;5002015;28;20970;-78
2024/03/29 14:19:08;;;;;;;1.03;0.30;;;;;;;;;;5000780;28;20446;-87
2024/03/29 14:21:33;;;;;;;0.87;0.30;;;;;;;;;;5000413;28;20600;-82
2024/03/29 14:23:59;;;;;;;0.77;0.50;;;;;;;;;;5001598;28;20183;-78
2024/03/29 14:26:25;;;;;;;0.90;0.20;;;;;;;;;;5001492;28;20180;-80
2024/03/29 14:28:51;;;;;;;1.90;0.40;;;;;;;;;;5001607;28;20681;-80
2024/03/29 14:31:17;;;;;;;0.40;0.30;;;;;;;;;;5001256;28;20469;-78
2024/03/29 14:33:44;;;;;;;1.80;0.40;;;;;;;;;;4999498;28;20192;-87
2024/03/29 14:36:10;;;;;;;1.03;0.40;;;;;;;;;;4997341;28;20431;-82
2024/03/29 14:38:36;;;;;;;1.37;0.47;;;;;;;;;;4999975;28;20513;-83
2024/03/29 14:41:02;;;;;;;0.90;0.50;;;;;;;;;;5000033;28;20185;-83
2024/03/29 14:43:28;;;;;;;0.90;0.20;;;;;;;;;;4998936;28;20224;-77
2024/03/29 14:45:54;;;;;;;1.00;0.20;;;;;;;;;;4999767;28;20185;-86